Time;durP1;ratioP1;P1;durP2;ratioP2;P2;SDS_P1;SDS_P2;PMS_P1;PMS_P2;Temp;Humidity;BMP_temperature;BMP_pressure;BME280_temperature;BME280_humidity;BME280_pressure;Samples;Min_cycle;Max_cycle;Signal;HPM_P1;HPM_P2
2022/04/15 00:00:31;;;;;;;0.60;0.50;;;;;;;;;;4180589;28;20065;-34
2022/04/15 00:02:33;;;;;;;0.30;0.30;;;;;;;;;;4180796;28;20060;-34
2022/04/15 00:04:35;;;;;;;0.50;0.40;;;;;;;;;;4180390;28;20102;-36
2022/04/15 00:06:37;;;;;;;0.95;0.40;;;;;;;;;;4180897;28;20075;-32
2022/04/15 00:08:38;;;;;;;0.45;0.30;;;;;;;;;;4180343;28;20049;-32
2022/04/15 00:10:41;;;;;;;0.95;0.40;;;;;;;;;;4180571;28;20079;-33
2022/04/15 00:12:42;;;;;;;0.30;0.30;;;;;;;;;;4180515;28;20493;-33
2022/04/15 00:14:44;;;;;;;0.40;0.20;;;;;;;;;;4180630;28;20057;-32
2022/04/15 00:16:46;;;;;;;0.50;0.40;;;;;;;;;;4180470;28;20055;-34
2022/04/15 00:18:48;;;;;;;0.50;0.40;;;;;;;;;;4180285;28;20056;-34
2022/04/15 00:20:49;;;;;;;0.50;0.50;;;;;;;;;;4180545;28;20053;-34
2022/04/15 00:22:52;;;;;;;0.68;0.30;;;;;;;;;;4180467;28;20551;-33
2022/04/15 00:24:53;;;;;;;0.40;0.30;;;;;;;;;;4179696;28;20057;-33
2022/04/15 00:26:54;;;;;;;0.57;0.40;;;;;;;;;;4178890;28;20099;-34
2022/04/15 00:28:55;;;;;;;0.28;0.28;;;;;;;;;;4180120;28;20053;-36
2022/04/15 00:30:57;;;;;;;0.40;0.30;;;;;;;;;;4180321;28;20060;-31
2022/04/15 00:32:59;;;;;;;0.30;0.20;;;;;;;;;;4180511;28;20111;-32
2022/04/15 00:35:00;;;;;;;0.30;0.20;;;;;;;;;;4180052;28;20056;-31
2022/04/15 00:37:01;;;;;;;1.02;0.60;;;;;;;;;;4180235;28;20057;-31
2022/04/15 00:39:02;;;;;;;0.35;0.30;;;;;;;;;;4179541;28;20513;-35
2022/04/15 00:41:03;;;;;;;0.75;0.32;;;;;;;;;;4180155;28;20099;-38
2022/04/15 00:43:04;;;;;;;0.30;0.30;;;;;;;;;;4180220;28;20098;-33
2022/04/15 00:45:09;;;;;;;0.43;0.40;;;;;;;;;;4179905;28;20547;-32
2022/04/15 00:47:24;;;;;;;0.63;0.50;;;;;;;;;;4179998;28;20492;-33
2022/04/15 00:49:25;;;;;;;0.57;0.40;;;;;;;;;;4180123;28;20111;-32
2022/04/15 00:51:27;;;;;;;0.38;0.30;;;;;;;;;;4180099;28;20110;-32
2022/04/15 00:53:30;;;;;;;0.70;0.38;;;;;;;;;;4179702;28;20057;-33
2022/04/15 00:55:31;;;;;;;0.20;0.20;;;;;;;;;;4179771;28;20064;-33
2022/04/15 00:57:39;;;;;;;0.40;0.32;;;;;;;;;;4179918;28;20476;-32
2022/04/15 00:59:41;;;;;;;0.57;0.40;;;;;;;;;;4179754;28;20397;-32
2022/04/15 01:01:42;;;;;;;0.60;0.30;;;;;;;;;;4179795;28;20064;-33
2022/04/15 01:03:44;;;;;;;0.73;0.35;;;;;;;;;;4179843;28;20488;-32
2022/04/15 01:05:46;;;;;;;0.43;0.30;;;;;;;;;;4179695;28;20080;-32
2022/04/15 01:07:49;;;;;;;0.25;0.25;;;;;;;;;;4178554;28;20106;-34
2022/04/15 01:09:51;;;;;;;0.95;0.65;;;;;;;;;;4179387;28;20481;-33
2022/04/15 01:11:53;;;;;;;0.30;0.30;;;;;;;;;;4179486;28;20065;-34
2022/04/15 01:13:59;;;;;;;0.30;0.30;;;;;;;;;;4179653;28;20110;-32
2022/04/15 01:16:00;;;;;;;0.60;0.52;;;;;;;;;;4180024;28;20103;-34
2022/04/15 01:18:01;;;;;;;0.28;0.28;;;;;;;;;;4179545;28;20458;-33
2022/04/15 01:20:05;;;;;;;0.50;0.40;;;;;;;;;;4179539;28;20586;-33
2022/04/15 01:22:14;;;;;;;0.30;0.30;;;;;;;;;;4179630;28;20087;-32
2022/04/15 01:24:15;;;;;;;0.28;0.28;;;;;;;;;;4179042;28;20393;-35
2022/04/15 01:26:17;;;;;;;0.30;0.30;;;;;;;;;;4179326;28;20049;-36
2022/04/15 01:28:19;;;;;;;0.30;0.30;;;;;;;;;;4161787;28;20057;-34
2022/04/15 01:30:21;;;;;;;0.40;0.40;;;;;;;;;;4179798;28;20094;-32
2022/04/15 01:32:22;;;;;;;0.25;0.25;;;;;;;;;;4179471;28;20056;-33
2022/04/15 01:34:23;;;;;;;0.60;0.30;;;;;;;;;;4179716;28;20057;-34
2022/04/15 01:36:25;;;;;;;0.30;0.30;;;;;;;;;;4179434;28;20053;-33
2022/04/15 01:38:27;;;;;;;0.50;0.30;;;;;;;;;;4179195;28;20049;-31
2022/04/15 01:40:29;;;;;;;0.38;0.35;;;;;;;;;;4179386;28;20053;-32
2022/04/15 01:42:31;;;;;;;0.45;0.30;;;;;;;;;;4179419;28;20053;-34
2022/04/15 01:44:32;;;;;;;0.50;0.25;;;;;;;;;;4179377;28;20128;-34
2022/04/15 01:46:33;;;;;;;0.20;0.20;;;;;;;;;;4179278;28;20049;-32
2022/04/15 01:48:34;;;;;;;0.45;0.40;;;;;;;;;;4179271;28;20053;-34
2022/04/15 01:50:35;;;;;;;0.70;0.35;;;;;;;;;;4179416;28;20099;-34
2022/04/15 01:52:37;;;;;;;0.22;0.20;;;;;;;;;;4179383;28;20467;-32
2022/04/15 01:54:38;;;;;;;0.93;0.20;;;;;;;;;;4178778;28;20056;-31
2022/04/15 01:56:39;;;;;;;0.40;0.30;;;;;;;;;;4179623;28;20099;-31
2022/04/15 01:58:41;;;;;;;0.30;0.20;;;;;;;;;;4181270;28;20052;-34
2022/04/15 02:00:43;;;;;;;0.63;0.30;;;;;;;;;;4182511;28;20061;-35
2022/04/15 02:02:44;;;;;;;0.20;0.20;;;;;;;;;;4179206;28;20053;-34
2022/04/15 02:04:45;;;;;;;1.00;0.50;;;;;;;;;;4180571;28;20059;-33
2022/04/15 02:06:47;;;;;;;0.30;0.30;;;;;;;;;;4179112;28;20447;-33
2022/04/15 02:08:49;;;;;;;0.22;0.22;;;;;;;;;;4179810;28;20106;-34
2022/04/15 02:10:50;;;;;;;0.52;0.38;;;;;;;;;;4180412;28;20061;-32
2022/04/15 02:12:51;;;;;;;0.60;0.60;;;;;;;;;;4180447;28;20065;-34
2022/04/15 02:14:52;;;;;;;0.68;0.40;;;;;;;;;;4179937;28;20134;-35
2022/04/15 02:16:54;;;;;;;0.22;0.22;;;;;;;;;;4180346;28;20049;-35
2022/04/15 02:18:55;;;;;;;0.30;0.22;;;;;;;;;;4178763;28;20500;-35
2022/04/15 02:20:56;;;;;;;0.28;0.20;;;;;;;;;;4180298;28;20428;-32
2022/04/15 02:22:57;;;;;;;0.40;0.30;;;;;;;;;;4180309;28;20061;-32
2022/04/15 02:25:00;;;;;;;0.30;0.30;;;;;;;;;;4180008;28;20060;-36
2022/04/15 02:27:01;;;;;;;0.32;0.28;;;;;;;;;;4180051;28;20374;-32
2022/04/15 02:29:02;;;;;;;0.20;0.20;;;;;;;;;;4180125;28;20069;-33
2022/04/15 02:31:04;;;;;;;0.38;0.30;;;;;;;;;;4180488;28;20076;-33
2022/04/15 02:33:05;;;;;;;0.20;0.20;;;;;;;;;;4180051;28;20594;-32
2022/04/15 02:35:08;;;;;;;0.40;0.38;;;;;;;;;;4179011;28;20098;-34
2022/04/15 02:37:09;;;;;;;0.20;0.20;;;;;;;;;;4179975;28;20074;-34
2022/04/15 02:39:10;;;;;;;0.30;0.30;;;;;;;;;;4179364;28;20048;-35
2022/04/15 02:41:12;;;;;;;0.40;0.40;;;;;;;;;;4179939;28;20057;-32
2022/04/15 02:43:14;;;;;;;0.20;0.20;;;;;;;;;;4178493;28;20661;-35
2022/04/15 02:45:15;;;;;;;0.30;0.30;;;;;;;;;;4179900;28;20154;-34
2022/04/15 02:47:17;;;;;;;0.50;0.35;;;;;;;;;;4180011;28;20049;-36
2022/04/15 02:49:18;;;;;;;0.30;0.30;;;;;;;;;;4179710;28;20067;-33
2022/04/15 02:51:19;;;;;;;0.47;0.40;;;;;;;;;;4172615;28;20053;-34
2022/04/15 02:53:22;;;;;;;0.50;0.20;;;;;;;;;;4163500;28;20099;-35
2022/04/15 02:55:23;;;;;;;0.50;0.30;;;;;;;;;;4165368;28;20061;-32
2022/04/15 02:57:25;;;;;;;0.30;0.30;;;;;;;;;;4165229;28;20054;-36
2022/04/15 02:59:26;;;;;;;0.55;0.30;;;;;;;;;;4165038;28;20119;-32
2022/04/15 03:01:27;;;;;;;0.30;0.28;;;;;;;;;;4165286;28;20339;-32
2022/04/15 03:03:28;;;;;;;0.32;0.30;;;;;;;;;;4165241;28;20092;-36
2022/04/15 03:05:30;;;;;;;0.30;0.20;;;;;;;;;;4147476;28;20571;-33
2022/04/15 03:07:30;;;;;;;0.22;0.20;;;;;;;;;;4180186;28;20052;-32
2022/04/15 03:09:32;;;;;;;0.50;0.40;;;;;;;;;;4163343;28;20080;-35
2022/04/15 03:11:37;;;;;;;0.50;0.30;;;;;;;;;;4165317;28;20076;-35
2022/04/15 03:13:38;;;;;;;0.55;0.22;;;;;;;;;;4164912;28;20057;-34
2022/04/15 03:15:39;;;;;;;0.22;0.20;;;;;;;;;;4165214;28;20053;-33
2022/04/15 03:17:40;;;;;;;0.20;0.20;;;;;;;;;;4164933;28;20045;-32
2022/04/15 03:19:41;;;;;;;0.35;0.30;;;;;;;;;;4164815;28;20053;-33
2022/04/15 03:21:43;;;;;;;0.20;0.20;;;;;;;;;;4164742;28;20053;-34
2022/04/15 03:23:44;;;;;;;0.52;0.30;;;;;;;;;;4169681;28;20102;-36
2022/04/15 03:25:46;;;;;;;0.32;0.30;;;;;;;;;;4181240;28;20053;-32
2022/04/15 03:27:47;;;;;;;0.40;0.30;;;;;;;;;;4181188;28;20045;-32
2022/04/15 03:29:49;;;;;;;0.40;0.30;;;;;;;;;;4181439;28;20053;-35
2022/04/15 03:31:50;;;;;;;0.38;0.30;;;;;;;;;;4181212;28;20450;-31
2022/04/15 03:33:51;;;;;;;0.25;0.25;;;;;;;;;;4181036;28;20064;-33
2022/04/15 03:35:53;;;;;;;0.30;0.30;;;;;;;;;;4181289;28;20060;-33
2022/04/15 03:37:54;;;;;;;0.25;0.20;;;;;;;;;;4181082;28;20095;-34
2022/04/15 03:39:55;;;;;;;0.22;0.20;;;;;;;;;;4180604;28;20451;-33
2022/04/15 03:41:56;;;;;;;0.20;0.20;;;;;;;;;;4181037;28;20390;-33
2022/04/15 03:43:58;;;;;;;0.40;0.30;;;;;;;;;;4181074;28;20045;-34
2022/04/15 03:45:59;;;;;;;0.50;0.35;;;;;;;;;;4180968;28;20451;-34
2022/04/15 03:48:00;;;;;;;0.40;0.35;;;;;;;;;;4181172;28;20087;-32
2022/04/15 03:50:01;;;;;;;0.50;0.40;;;;;;;;;;4180703;28;20057;-34
2022/04/15 03:52:03;;;;;;;0.60;0.30;;;;;;;;;;4179649;28;20437;-33
2022/04/15 03:54:04;;;;;;;0.45;0.30;;;;;;;;;;4180511;28;20053;-33
2022/04/15 03:56:08;;;;;;;0.47;0.32;;;;;;;;;;4180832;28;20487;-32
2022/04/15 03:58:11;;;;;;;0.10;0.10;;;;;;;;;;4180625;28;20294;-33
2022/04/15 04:00:18;;;;;;;0.47;0.30;;;;;;;;;;4180795;28;20057;-33
2022/04/15 04:02:19;;;;;;;0.30;0.20;;;;;;;;;;4180755;28;20071;-32
2022/04/15 04:04:20;;;;;;;0.30;0.17;;;;;;;;;;4180573;28;20102;-32
2022/04/15 04:06:21;;;;;;;0.57;0.30;;;;;;;;;;4180512;28;20107;-33
2022/04/15 04:08:23;;;;;;;0.32;0.20;;;;;;;;;;4180032;28;20129;-32
2022/04/15 04:10:24;;;;;;;0.30;0.30;;;;;;;;;;4180473;28;20447;-35
2022/04/15 04:12:30;;;;;;;0.50;0.40;;;;;;;;;;4180524;28;20045;-33
2022/04/15 04:14:32;;;;;;;0.32;0.30;;;;;;;;;;4180692;28;20061;-32
2022/04/15 04:16:33;;;;;;;0.30;0.22;;;;;;;;;;4180851;28;20094;-33
2022/04/15 04:18:34;;;;;;;0.50;0.30;;;;;;;;;;4180331;28;20053;-32
2022/04/15 04:20:35;;;;;;;0.40;0.30;;;;;;;;;;4180203;28;20098;-33
2022/04/15 04:22:37;;;;;;;0.20;0.20;;;;;;;;;;4180288;28;20053;-33
2022/04/15 04:24:38;;;;;;;0.45;0.35;;;;;;;;;;4179793;28;20053;-34
2022/04/15 04:26:39;;;;;;;0.20;0.20;;;;;;;;;;4180242;28;20053;-36
2022/04/15 04:28:41;;;;;;;0.20;0.20;;;;;;;;;;4180296;28;20053;-34
2022/04/15 04:30:42;;;;;;;0.30;0.30;;;;;;;;;;4180386;28;20053;-33
2022/04/15 04:32:50;;;;;;;0.22;0.20;;;;;;;;;;4180123;28;20060;-34
2022/04/15 04:34:51;;;;;;;0.20;0.20;;;;;;;;;;4180275;28;20503;-34
2022/04/15 04:36:52;;;;;;;0.85;0.40;;;;;;;;;;4180411;28;20102;-34
2022/04/15 04:38:53;;;;;;;0.30;0.20;;;;;;;;;;4179613;28;20126;-32
2022/04/15 04:40:56;;;;;;;0.20;0.20;;;;;;;;;;4180457;28;20094;-32
2022/04/15 04:42:57;;;;;;;0.25;0.25;;;;;;;;;;4180059;28;20103;-32
2022/04/15 04:44:58;;;;;;;0.20;0.20;;;;;;;;;;4178848;28;20106;-35
2022/04/15 04:46:59;;;;;;;0.30;0.30;;;;;;;;;;4179980;28;20105;-34
2022/04/15 04:49:00;;;;;;;0.60;0.20;;;;;;;;;;4179797;28;20578;-37
2022/04/15 04:51:02;;;;;;;0.60;0.30;;;;;;;;;;4178703;28;20056;-36
2022/04/15 04:53:03;;;;;;;0.40;0.28;;;;;;;;;;4180067;28;20053;-33
2022/04/15 04:55:06;;;;;;;0.30;0.30;;;;;;;;;;4179278;28;20492;-33
2022/04/15 04:57:07;;;;;;;0.38;0.30;;;;;;;;;;4179906;28;20044;-32
2022/04/15 04:59:08;;;;;;;0.30;0.20;;;;;;;;;;4179698;28;20079;-32
2022/04/15 05:01:09;;;;;;;0.45;0.20;;;;;;;;;;4175876;28;20057;-32
2022/04/15 05:03:11;;;;;;;0.10;0.10;;;;;;;;;;4177667;28;20130;-34
2022/04/15 05:05:13;;;;;;;0.50;0.32;;;;;;;;;;4176734;28;20057;-33
2022/04/15 05:07:15;;;;;;;0.32;0.30;;;;;;;;;;4177753;28;20053;-32
2022/04/15 05:09:16;;;;;;;0.50;0.32;;;;;;;;;;4175753;28;20061;-35
2022/04/15 05:11:17;;;;;;;0.30;0.30;;;;;;;;;;4176278;28;20064;-34
2022/04/15 05:13:18;;;;;;;0.20;0.20;;;;;;;;;;4177118;28;20091;-33
2022/04/15 05:15:19;;;;;;;0.13;0.13;;;;;;;;;;4177525;28;20057;-36
2022/04/15 05:17:20;;;;;;;0.20;0.20;;;;;;;;;;4177707;28;20049;-32
2022/04/15 05:19:22;;;;;;;0.25;0.25;;;;;;;;;;4177437;28;20068;-32
2022/04/15 05:21:23;;;;;;;0.35;0.30;;;;;;;;;;4177707;28;20064;-32
2022/04/15 05:23:25;;;;;;;0.30;0.20;;;;;;;;;;4177378;28;20053;-36
2022/04/15 05:25:26;;;;;;;0.22;0.22;;;;;;;;;;4177091;28;20480;-32
2022/04/15 05:27:28;;;;;;;0.22;0.22;;;;;;;;;;4177750;28;20072;-33
2022/04/15 05:29:29;;;;;;;0.50;0.30;;;;;;;;;;4177517;28;20154;-34
2022/04/15 05:31:31;;;;;;;0.35;0.30;;;;;;;;;;4177442;28;20056;-35
2022/04/15 05:33:32;;;;;;;0.20;0.20;;;;;;;;;;4176671;28;20049;-36
2022/04/15 05:35:33;;;;;;;0.20;0.20;;;;;;;;;;4177393;28;20102;-38
2022/04/15 05:37:34;;;;;;;0.47;0.30;;;;;;;;;;4177142;28;20053;-33
2022/04/15 05:39:36;;;;;;;0.20;0.10;;;;;;;;;;4177015;28;20098;-35
2022/04/15 05:41:37;;;;;;;0.20;0.20;;;;;;;;;;4177287;28;20061;-33
2022/04/15 05:43:38;;;;;;;0.30;0.20;;;;;;;;;;4177615;28;20485;-32
2022/04/15 05:45:39;;;;;;;0.20;0.20;;;;;;;;;;4177390;28;20115;-33
2022/04/15 05:47:40;;;;;;;0.30;0.30;;;;;;;;;;4177325;28;20114;-35
2022/04/15 05:49:41;;;;;;;0.45;0.35;;;;;;;;;;4176887;28;20110;-31
2022/04/15 05:51:43;;;;;;;0.22;0.22;;;;;;;;;;4177395;28;20441;-32
2022/04/15 05:53:45;;;;;;;0.20;0.20;;;;;;;;;;4176953;28;20053;-32
2022/04/15 05:55:46;;;;;;;0.20;0.20;;;;;;;;;;4177272;28;20131;-31
2022/04/15 05:57:47;;;;;;;0.20;0.20;;;;;;;;;;4177287;28;20079;-34
2022/04/15 05:59:48;;;;;;;0.20;0.20;;;;;;;;;;4176916;28;20459;-32
2022/04/15 06:01:53;;;;;;;0.30;0.20;;;;;;;;;;4176942;28;20068;-34
2022/04/15 06:03:54;;;;;;;0.25;0.25;;;;;;;;;;4175729;28;20068;-32
2022/04/15 06:05:55;;;;;;;0.30;0.30;;;;;;;;;;4177148;28;20516;-32
2022/04/15 06:07:56;;;;;;;0.15;0.13;;;;;;;;;;4177227;28;20064;-32
2022/04/15 06:09:58;;;;;;;0.32;0.30;;;;;;;;;;4176965;28;20060;-34
2022/04/15 06:11:59;;;;;;;0.28;0.20;;;;;;;;;;4177096;28;20053;-34
2022/04/15 06:14:03;;;;;;;0.20;0.20;;;;;;;;;;4176725;28;20205;-32
2022/04/15 06:16:09;;;;;;;0.10;0.10;;;;;;;;;;4177014;28;20509;-34
2022/04/15 06:18:11;;;;;;;0.32;0.20;;;;;;;;;;4177399;28;20360;-33
2022/04/15 06:20:12;;;;;;;0.20;0.20;;;;;;;;;;4177274;28;20060;-31
2022/04/15 06:22:13;;;;;;;0.30;0.30;;;;;;;;;;4177049;28;20060;-33
2022/04/15 06:24:14;;;;;;;0.50;0.30;;;;;;;;;;4176255;28;20061;-34
2022/04/15 06:26:16;;;;;;;0.20;0.20;;;;;;;;;;4177213;28;20098;-33
2022/04/15 06:28:17;;;;;;;0.38;0.20;;;;;;;;;;4176773;28;20061;-34
2022/04/15 06:30:20;;;;;;;0.30;0.17;;;;;;;;;;4176923;28;20103;-31
2022/04/15 06:32:21;;;;;;;0.20;0.20;;;;;;;;;;4177028;28;20114;-36
2022/04/15 06:34:22;;;;;;;0.20;0.20;;;;;;;;;;4175571;28;20813;-33
2022/04/15 06:36:23;;;;;;;0.20;0.20;;;;;;;;;;4175375;28;20523;-34
2022/04/15 06:38:24;;;;;;;0.50;0.38;;;;;;;;;;4176367;28;20049;-33
2022/04/15 06:40:26;;;;;;;0.20;0.20;;;;;;;;;;4177216;28;20064;-31
2022/04/15 06:42:28;;;;;;;0.20;0.20;;;;;;;;;;4177210;28;20061;-37
2022/04/15 06:44:28;;;;;;;0.13;0.13;;;;;;;;;;4178267;28;20548;-32
2022/04/15 06:46:30;;;;;;;0.10;0.10;;;;;;;;;;4180015;28;20049;-35
2022/04/15 06:48:31;;;;;;;0.22;0.22;;;;;;;;;;4179456;28;20118;-35
2022/04/15 06:50:32;;;;;;;0.10;0.10;;;;;;;;;;4179715;28;20111;-33
2022/04/15 06:52:34;;;;;;;0.43;0.20;;;;;;;;;;4178573;28;20457;-35
2022/04/15 06:54:35;;;;;;;0.20;0.20;;;;;;;;;;4179307;28;20492;-36
2022/04/15 06:56:36;;;;;;;0.28;0.15;;;;;;;;;;4179654;28;20075;-34
2022/04/15 06:58:37;;;;;;;0.20;0.10;;;;;;;;;;4179611;28;20052;-32
2022/04/15 07:00:39;;;;;;;0.47;0.38;;;;;;;;;;4179508;28;20061;-31
2022/04/15 07:02:43;;;;;;;0.20;0.20;;;;;;;;;;4179685;28;20412;-35
2022/04/15 07:04:44;;;;;;;0.20;0.20;;;;;;;;;;4179620;28;20060;-32
2022/04/15 07:06:46;;;;;;;0.20;0.20;;;;;;;;;;4179591;28;20045;-33
2022/04/15 07:08:47;;;;;;;0.20;0.10;;;;;;;;;;4178980;28;20066;-33
2022/04/15 07:10:48;;;;;;;0.40;0.20;;;;;;;;;;4179453;28;20060;-34
2022/04/15 07:12:50;;;;;;;0.10;0.10;;;;;;;;;;4179228;28;20083;-37
2022/04/15 07:14:52;;;;;;;0.22;0.13;;;;;;;;;;4179395;28;20455;-35
2022/04/15 07:16:53;;;;;;;0.17;0.17;;;;;;;;;;4179617;28;20053;-34
2022/04/15 07:18:56;;;;;;;0.30;0.30;;;;;;;;;;4179175;28;20061;-34
2022/04/15 07:20:57;;;;;;;0.20;0.20;;;;;;;;;;4179344;28;20110;-33
2022/04/15 07:23:01;;;;;;;0.10;0.10;;;;;;;;;;4177927;28;20056;-35
2022/04/15 07:25:02;;;;;;;0.10;0.10;;;;;;;;;;4178485;28;20499;-35
2022/04/15 07:27:03;;;;;;;0.20;0.20;;;;;;;;;;4179241;28;20075;-32
2022/04/15 07:29:04;;;;;;;0.20;0.20;;;;;;;;;;4178936;28;20068;-30
2022/04/15 07:31:06;;;;;;;0.10;0.10;;;;;;;;;;4179283;28;20082;-33
2022/04/15 07:33:07;;;;;;;0.17;0.17;;;;;;;;;;4179122;28;20053;-34
2022/04/15 07:35:08;;;;;;;0.30;0.20;;;;;;;;;;4179285;28;20056;-37
2022/04/15 07:37:10;;;;;;;0.20;0.20;;;;;;;;;;4178761;28;20489;-35
2022/04/15 07:39:12;;;;;;;0.30;0.20;;;;;;;;;;4179050;28;20108;-33
2022/04/15 07:41:13;;;;;;;0.20;0.20;;;;;;;;;;4179103;28;20064;-32
2022/04/15 07:43:15;;;;;;;0.10;0.10;;;;;;;;;;4178810;28;20064;-35
2022/04/15 07:45:16;;;;;;;0.43;0.13;;;;;;;;;;4178819;28;20107;-34
2022/04/15 07:47:17;;;;;;;0.30;0.20;;;;;;;;;;4178659;28;20566;-34
2022/04/15 07:49:18;;;;;;;0.17;0.17;;;;;;;;;;4177158;28;20061;-37
2022/04/15 07:51:20;;;;;;;0.10;0.03;;;;;;;;;;4178786;28;20056;-32
2022/04/15 07:53:21;;;;;;;0.30;0.30;;;;;;;;;;4178552;28;20061;-36
2022/04/15 07:55:22;;;;;;;0.30;0.17;;;;;;;;;;4178594;28;20061;-35
2022/04/15 07:57:27;;;;;;;0.30;0.20;;;;;;;;;;4178750;28;20142;-35
2022/04/15 07:59:29;;;;;;;0.20;0.20;;;;;;;;;;4178547;28;20072;-33
2022/04/15 08:01:31;;;;;;;0.20;0.20;;;;;;;;;;4178380;28;20490;-33
2022/04/15 08:03:33;;;;;;;0.63;0.20;;;;;;;;;;4178359;28;20111;-33
2022/04/15 08:05:34;;;;;;;0.38;0.17;;;;;;;;;;4178650;28;20114;-34
2022/04/15 08:07:35;;;;;;;0.25;0.10;;;;;;;;;;4178318;28;20111;-34
2022/04/15 08:09:39;;;;;;;0.40;0.20;;;;;;;;;;4178167;28;20130;-33
2022/04/15 08:11:41;;;;;;;0.20;0.20;;;;;;;;;;4178651;28;20055;-33
2022/04/15 08:13:42;;;;;;;0.40;0.20;;;;;;;;;;4178088;28;20052;-33
2022/04/15 08:15:44;;;;;;;0.20;0.20;;;;;;;;;;4178340;28;20453;-38
2022/04/15 08:17:45;;;;;;;0.10;0.10;;;;;;;;;;4177143;28;20107;-34
2022/04/15 08:19:47;;;;;;;0.35;0.35;;;;;;;;;;4176997;28;20064;-38
2022/04/15 08:21:49;;;;;;;0.20;0.20;;;;;;;;;;4178721;28;20057;-36
2022/04/15 08:23:50;;;;;;;0.15;0.10;;;;;;;;;;4177910;28;20110;-37
2022/04/15 08:25:51;;;;;;;0.10;0.10;;;;;;;;;;4178317;28;20061;-35
2022/04/15 08:27:53;;;;;;;0.70;0.17;;;;;;;;;;4178226;28;20099;-33
2022/04/15 08:29:54;;;;;;;0.17;0.17;;;;;;;;;;4178374;28;20067;-31
2022/04/15 08:31:55;;;;;;;0.10;0.10;;;;;;;;;;4178079;28;20409;-32
2022/04/15 08:33:56;;;;;;;1.00;0.30;;;;;;;;;;4178066;28;20053;-32
2022/04/15 08:35:58;;;;;;;0.10;0.10;;;;;;;;;;4178432;28;20397;-38
2022/04/15 08:37:59;;;;;;;0.68;0.30;;;;;;;;;;4177612;28;20045;-37
2022/04/15 08:40:00;;;;;;;0.28;0.20;;;;;;;;;;4177572;28;20099;-35
2022/04/15 08:42:02;;;;;;;0.20;0.20;;;;;;;;;;4177921;28;20060;-35
2022/04/15 08:44:04;;;;;;;0.13;0.10;;;;;;;;;;4176448;28;20056;-33
2022/04/15 08:46:05;;;;;;;0.10;0.10;;;;;;;;;;4178053;28;20049;-32
2022/04/15 08:48:08;;;;;;;0.47;0.20;;;;;;;;;;4176543;28;20060;-35
2022/04/15 08:50:10;;;;;;;0.13;0.13;;;;;;;;;;4177523;28;20060;-33
2022/04/15 08:52:15;;;;;;;0.20;0.20;;;;;;;;;;4177875;28;20134;-33
2022/04/15 08:54:18;;;;;;;0.30;0.22;;;;;;;;;;4177424;28;20554;-32
2022/04/15 08:56:19;;;;;;;0.30;0.10;;;;;;;;;;4177848;28;20107;-33
2022/04/15 08:58:21;;;;;;;0.20;0.20;;;;;;;;;;4177667;28;20106;-34
2022/04/15 09:00:24;;;;;;;0.10;0.10;;;;;;;;;;4174503;28;20053;-34
2022/04/15 09:02:37;;;;;;;0.43;0.20;;;;;;;;;;4164071;28;20064;-34
2022/04/15 09:04:38;;;;;;;0.77;0.20;;;;;;;;;;4162023;28;20054;-35
2022/04/15 09:06:41;;;;;;;0.20;0.20;;;;;;;;;;4163063;28;20060;-32
2022/04/15 09:09:07;;;;;;;0.30;0.20;;;;;;;;;;4160537;28;20163;-31
2022/04/15 09:11:09;;;;;;;0.10;0.10;;;;;;;;;;4163081;28;20060;-32
2022/04/15 09:13:24;;;;;;;0.25;0.20;;;;;;;;;;4163016;28;20500;-33
2022/04/15 09:15:25;;;;;;;0.30;0.10;;;;;;;;;;4163442;28;20049;-34
2022/04/15 09:17:28;;;;;;;0.22;0.17;;;;;;;;;;4163206;28;20493;-35
2022/04/15 09:19:29;;;;;;;0.17;0.10;;;;;;;;;;4163236;28;20064;-35
2022/04/15 09:21:30;;;;;;;0.13;0.13;;;;;;;;;;4163089;28;20390;-33
2022/04/15 09:23:35;;;;;;;0.15;0.10;;;;;;;;;;4166138;28;20149;-34
2022/04/15 09:25:39;;;;;;;0.30;0.20;;;;;;;;;;4179785;28;20053;-36
2022/04/15 09:27:40;;;;;;;0.20;0.20;;;;;;;;;;4179421;28;20053;-35
2022/04/15 09:29:42;;;;;;;0.20;0.10;;;;;;;;;;4177981;28;20514;-31
2022/04/15 09:31:44;;;;;;;0.13;0.13;;;;;;;;;;4179449;28;20166;-33
2022/04/15 09:33:50;;;;;;;0.20;0.20;;;;;;;;;;4179380;28;20056;-33
2022/04/15 09:35:55;;;;;;;1.17;0.30;;;;;;;;;;4179571;28;20524;-34
2022/04/15 09:38:03;;;;;;;0.30;0.20;;;;;;;;;;4179535;28;20045;-31
2022/04/15 09:40:26;;;;;;;0.10;0.10;;;;;;;;;;4178877;28;20106;-35
2022/04/15 09:42:28;;;;;;;0.57;0.10;;;;;;;;;;4179527;28;20064;-31
2022/04/15 09:44:32;;;;;;;0.50;0.20;;;;;;;;;;4178215;28;20053;-34
2022/04/15 09:46:33;;;;;;;0.32;0.30;;;;;;;;;;4179200;28;20057;-31
2022/04/15 09:48:37;;;;;;;0.10;0.10;;;;;;;;;;4177869;28;20417;-33
2022/04/15 09:50:44;;;;;;;0.10;0.10;;;;;;;;;;4179343;28;20389;-33
2022/04/15 09:52:45;;;;;;;0.20;0.17;;;;;;;;;;4177956;28;20053;-34
2022/04/15 09:54:47;;;;;;;0.15;0.15;;;;;;;;;;4177302;28;20061;-32
2022/04/15 09:56:49;;;;;;;0.10;0.10;;;;;;;;;;4178277;28;20098;-32
2022/04/15 09:58:54;;;;;;;0.10;0.10;;;;;;;;;;4179180;28;20489;-31
2022/04/15 10:00:57;;;;;;;0.17;0.10;;;;;;;;;;4178124;28;20524;-33
2022/04/15 10:02:58;;;;;;;0.10;0.10;;;;;;;;;;4177935;28;20053;-31
2022/04/15 10:04:59;;;;;;;0.28;0.28;;;;;;;;;;4178035;28;20057;-33
2022/04/15 10:07:04;;;;;;;0.10;0.10;;;;;;;;;;4179305;28;20053;-32
2022/04/15 10:09:06;;;;;;;0.43;0.17;;;;;;;;;;4178953;28;20053;-35
2022/04/15 10:11:09;;;;;;;0.10;0.10;;;;;;;;;;4179158;28;20484;-33
2022/04/15 10:13:10;;;;;;;0.10;0.10;;;;;;;;;;4179088;28;21018;-33
2022/04/15 10:15:11;;;;;;;0.28;0.15;;;;;;;;;;4179118;28;20661;-33
2022/04/15 10:17:12;;;;;;;0.52;0.20;;;;;;;;;;4179136;28;20079;-31
2022/04/15 10:19:14;;;;;;;0.10;0.10;;;;;;;;;;4180315;28;20057;-33
2022/04/15 10:21:16;;;;;;;0.30;0.10;;;;;;;;;;4181064;28;20053;-33
2022/04/15 10:23:17;;;;;;;0.10;0.10;;;;;;;;;;4180758;28;20106;-36
2022/04/15 10:25:18;;;;;;;0.45;0.22;;;;;;;;;;4164392;28;20053;-33
2022/04/15 10:27:29;;;;;;;0.10;0.10;;;;;;;;;;4164306;28;20052;-34
2022/04/15 10:29:30;;;;;;;0.30;0.30;;;;;;;;;;4180854;28;20123;-32
2022/04/15 10:31:45;;;;;;;0.20;0.20;;;;;;;;;;4182312;28;20106;-33
2022/04/15 10:33:49;;;;;;;0.17;0.10;;;;;;;;;;4165562;28;20440;-34
2022/04/15 10:35:53;;;;;;;0.10;0.10;;;;;;;;;;4164480;28;20080;-33
2022/04/15 10:38:11;;;;;;;0.10;0.10;;;;;;;;;;4164461;28;20053;-33
2022/04/15 10:40:23;;;;;;;0.20;0.10;;;;;;;;;;4164567;28;20116;-35
2022/04/15 10:42:31;;;;;;;0.20;0.20;;;;;;;;;;4165598;28;20049;-34
2022/04/15 10:44:35;;;;;;;0.10;0.10;;;;;;;;;;4165293;28;20119;-38
2022/04/15 10:46:37;;;;;;;0.13;0.13;;;;;;;;;;4165637;28;20107;-34
2022/04/15 10:48:38;;;;;;;0.28;0.20;;;;;;;;;;4165226;28;20413;-33
2022/04/15 10:50:40;;;;;;;0.38;0.20;;;;;;;;;;4165566;28;20057;-32
2022/04/15 10:52:41;;;;;;;0.82;0.20;;;;;;;;;;4165304;28;20111;-35
2022/04/15 10:54:48;;;;;;;0.32;0.17;;;;;;;;;;4164722;28;20100;-33
2022/04/15 10:57:08;;;;;;;0.30;0.20;;;;;;;;;;4165306;28;20057;-32
2022/04/15 11:01:29;;;;;;;0.30;0.15;;;;;;;;;;4165434;28;20053;-35
2022/04/15 11:03:31;;;;;;;0.50;0.15;;;;;;;;;;4165098;28;20058;-34
2022/04/15 11:05:55;;;;;;;0.20;0.10;;;;;;;;;;4164975;28;20056;-35
2022/04/15 11:07:58;;;;;;;0.20;0.10;;;;;;;;;;4180649;28;20455;-33
2022/04/15 11:09:59;;;;;;;0.40;0.20;;;;;;;;;;4181066;28;20455;-37
2022/04/15 11:12:03;;;;;;;0.10;0.10;;;;;;;;;;4181762;28;20056;-35
2022/04/15 11:14:04;;;;;;;0.10;0.10;;;;;;;;;;4181583;28;20118;-34
2022/04/15 11:16:13;;;;;;;0.55;0.17;;;;;;;;;;4181320;28;20098;-33
2022/04/15 11:18:17;;;;;;;0.10;0.10;;;;;;;;;;4181254;28;20503;-33
2022/04/15 11:20:19;;;;;;;0.25;0.13;;;;;;;;;;4181277;28;20516;-33
2022/04/15 11:22:24;;;;;;;0.17;0.10;;;;;;;;;;4181148;28;20074;-31
2022/04/15 11:24:28;;;;;;;0.30;0.20;;;;;;;;;;4180883;28;20056;-32
2022/04/15 11:26:30;;;;;;;0.68;0.17;;;;;;;;;;4181191;28;20435;-34
2022/04/15 11:28:31;;;;;;;0.30;0.20;;;;;;;;;;4179842;28;20119;-37
2022/04/15 11:30:32;;;;;;;0.32;0.20;;;;;;;;;;4180209;28;20075;-33
2022/04/15 11:32:45;;;;;;;0.75;0.20;;;;;;;;;;4180095;28;20053;-32
2022/04/15 11:34:46;;;;;;;0.20;0.10;;;;;;;;;;4180925;28;20063;-33
2022/04/15 11:36:49;;;;;;;0.10;0.10;;;;;;;;;;4181128;28;20461;-32
2022/04/15 11:38:51;;;;;;;0.10;0.10;;;;;;;;;;4180570;28;20303;-35
2022/04/15 11:40:53;;;;;;;0.45;0.20;;;;;;;;;;4181087;28;20638;-36
2022/04/15 11:42:58;;;;;;;2.10;0.20;;;;;;;;;;4179731;28;20053;-32
2022/04/15 11:45:04;;;;;;;1.30;0.20;;;;;;;;;;4180933;28;20060;-33
2022/04/15 11:47:18;;;;;;;0.25;0.20;;;;;;;;;;4181015;28;20053;-33
2022/04/15 11:49:26;;;;;;;0.32;0.10;;;;;;;;;;4180827;28;20106;-33
2022/04/15 11:51:28;;;;;;;0.20;0.10;;;;;;;;;;4179706;28;20057;-32
2022/04/15 11:53:29;;;;;;;0.10;0.10;;;;;;;;;;4178929;28;20080;-34
2022/04/15 11:55:30;;;;;;;0.85;0.25;;;;;;;;;;4180942;28;20053;-35
2022/04/15 11:57:32;;;;;;;1.23;0.10;;;;;;;;;;4181282;28;20049;-34
2022/04/15 11:59:44;;;;;;;0.32;0.08;;;;;;;;;;4180497;28;20064;-34
2022/04/15 12:01:45;;;;;;;1.02;0.10;;;;;;;;;;4179526;28;20063;-31
2022/04/15 12:03:46;;;;;;;0.40;0.10;;;;;;;;;;4180538;28;20053;-33
2022/04/15 12:05:48;;;;;;;0.20;0.10;;;;;;;;;;4180630;28;20064;-34
2022/04/15 12:07:50;;;;;;;0.20;0.10;;;;;;;;;;4180584;28;20052;-35
2022/04/15 12:09:53;;;;;;;0.10;0.10;;;;;;;;;;4178941;28;20103;-33
2022/04/15 12:11:54;;;;;;;0.40;0.22;;;;;;;;;;4180528;28;20068;-35
2022/04/15 12:13:57;;;;;;;1.80;0.10;;;;;;;;;;4180696;28;20076;-34
2022/04/15 12:15:58;;;;;;;0.30;0.20;;;;;;;;;;4180793;28;20049;-34